Time;durP1;ratioP1;P1;durP2;ratioP2;P2;SDS_P1;SDS_P2;PMS_P1;PMS_P2;Temp;Humidity;BMP_temperature;BMP_pressure;BME280_temperature;BME280_humidity;BME280_pressure;Samples;Min_cycle;Max_cycle;Signal;HPM_P1;HPM_P2
2023/03/22 00:00:44;;;;;;;13.23;6.55;;;9.30;94.70;;;;;;5073623;28;20048;-79
2023/03/22 00:03:10;;;;;;;19.33;7.50;;;9.40;94.70;;;;;;5073001;28;20055;-80
2023/03/22 00:05:35;;;;;;;16.20;7.38;;;9.30;94.60;;;;;;5073143;28;20044;-79
2023/03/22 00:08:05;;;;;;;19.60;7.93;;;9.30;94.60;;;;;;5073680;28;20036;-79
2023/03/22 00:10:32;;;;;;;18.95;6.90;;;9.30;94.70;;;;;;5073515;28;20087;-79
2023/03/22 00:12:58;;;;;;;15.88;7.10;;;9.30;94.80;;;;;;5073412;28;20036;-79
2023/03/22 00:15:24;;;;;;;14.20;7.32;;;9.20;94.80;;;;;;5056602;28;20076;-79
2023/03/22 00:17:50;;;;;;;11.75;7.30;;;9.20;94.70;;;;;;5073487;28;20086;-79
2023/03/22 00:20:18;;;;;;;17.92;7.55;;;9.20;94.90;;;;;;5056305;28;20098;-79
2023/03/22 00:22:45;;;;;;;13.23;6.20;;;9.20;95.10;;;;;;5073008;28;20057;-79
2023/03/22 00:25:11;;;;;;;12.07;7.15;;;9.10;95.10;;;;;;5072867;28;20052;-79
2023/03/22 00:27:37;;;;;;;14.43;6.47;;;9.10;94.90;;;;;;5072896;28;20148;-79
2023/03/22 00:30:04;;;;;;;17.02;6.75;;;9.10;95.20;;;;;;5072954;28;20089;-79
2023/03/22 00:32:34;;;;;;;14.20;6.25;;;9.10;95.10;;;;;;5072873;28;20075;-79
2023/03/22 00:35:00;;;;;;;15.27;5.85;;;9.10;95.10;;;;;;5067363;28;20032;-79
2023/03/22 00:37:32;;;;;;;17.63;5.72;;;9.10;95.00;;;;;;5076207;28;20048;-79
2023/03/22 00:39:59;;;;;;;11.38;5.93;;;9.10;95.00;;;;;;5092859;28;20048;-79
2023/03/22 00:42:25;;;;;;;8.75;3.80;;;9.00;95.00;;;;;;5092998;28;20044;-79
2023/03/22 00:44:51;;;;;;;13.43;4.03;;;9.10;94.90;;;;;;5092964;28;20488;-79
2023/03/22 00:47:16;;;;;;;14.50;4.60;;;9.10;94.80;;;;;;5093221;28;20045;-79
2023/03/22 00:49:42;;;;;;;12.88;3.85;;;9.10;94.70;;;;;;5086234;28;20500;-79
2023/03/22 00:52:08;;;;;;;14.70;4.03;;;9.10;94.80;;;;;;5055849;28;20041;-79
2023/03/22 00:54:34;;;;;;;14.30;4.50;;;9.10;94.60;;;;;;5072573;28;20068;-79
2023/03/22 00:57:00;;;;;;;8.95;3.25;;;9.10;94.50;;;;;;5072413;28;20051;-79
2023/03/22 00:59:27;;;;;;;8.85;2.78;;;9.10;94.50;;;;;;5056191;28;20075;-79
2023/03/22 01:01:54;;;;;;;17.08;3.90;;;9.10;94.10;;;;;;5039430;28;20102;-79
2023/03/22 01:04:24;;;;;;;9.00;3.33;;;9.00;94.00;;;;;;5072752;28;20577;-79
2023/03/22 01:06:57;;;;;;;11.18;2.97;;;9.10;94.20;;;;;;5069522;28;20028;-79
2023/03/22 01:09:27;;;;;;;6.82;2.45;;;9.10;93.70;;;;;;5092680;28;20050;-79
2023/03/22 01:11:55;;;;;;;10.88;2.88;;;9.10;93.80;;;;;;5075885;28;20030;-79
2023/03/22 01:14:21;;;;;;;8.77;2.38;;;9.10;93.60;;;;;;5075681;28;20040;-79
2023/03/22 01:16:47;;;;;;;10.75;2.40;;;9.10;93.50;;;;;;5092484;28;20055;-79
2023/03/22 01:19:13;;;;;;;7.78;2.38;;;9.10;93.40;;;;;;5075749;28;20040;-79
2023/03/22 01:21:40;;;;;;;8.30;2.10;;;9.10;93.20;;;;;;5075828;28;20056;-79
2023/03/22 01:24:06;;;;;;;14.27;3.83;;;9.00;93.30;;;;;;5092373;28;20135;-79
2023/03/22 01:26:32;;;;;;;8.20;2.65;;;9.10;93.30;;;;;;5075653;28;20047;-79
2023/03/22 01:28:58;;;;;;;10.35;2.63;;;9.00;93.10;;;;;;5074993;28;20702;-79
2023/03/22 01:31:24;;;;;;;11.00;1.92;;;9.00;92.90;;;;;;5074604;28;20040;-79
2023/03/22 01:33:50;;;;;;;9.77;2.10;;;9.00;93.00;;;;;;5057976;28;20119;-79
2023/03/22 01:36:16;;;;;;;8.82;2.20;;;9.00;92.90;;;;;;5074548;28;20044;-79
2023/03/22 01:38:41;;;;;;;8.10;2.22;;;8.90;93.00;;;;;;5074783;28;20121;-80
2023/03/22 01:41:07;;;;;;;11.52;2.70;;;9.00;93.00;;;;;;5073716;28;20032;-79
2023/03/22 01:43:33;;;;;;;9.65;2.47;;;8.90;93.30;;;;;;5074430;28;20062;-79
2023/03/22 01:45:59;;;;;;;9.45;2.28;;;8.80;93.50;;;;;;5091257;28;20048;-79
2023/03/22 01:48:34;;;;;;;9.93;2.90;;;8.80;93.60;;;;;;5078731;28;20105;-79
2023/03/22 01:51:15;;;;;;;9.82;3.42;;;8.80;93.80;;;;;;5095436;28;20407;-79
2023/03/22 01:53:47;;;;;;;9.23;3.60;;;8.80;93.80;;;;;;5095229;28;20097;-80
2023/03/22 01:56:13;;;;;;;15.02;3.08;;;8.70;93.90;;;;;;5094999;28;20040;-80
2023/03/22 01:58:40;;;;;;;11.23;2.95;;;8.80;93.70;;;;;;5094645;28;20058;-79
2023/03/22 02:01:08;;;;;;;10.77;3.20;;;8.70;94.20;;;;;;5095215;28;20051;-79
2023/03/22 02:03:42;;;;;;;8.73;2.58;;;8.60;94.40;;;;;;5095023;28;20043;-79
2023/03/22 02:06:07;;;;;;;11.90;3.22;;;8.70;94.30;;;;;;5095019;28;20040;-80
2023/03/22 02:08:33;;;;;;;10.60;2.58;;;8.70;94.50;;;;;;5094989;28;20047;-79
2023/03/22 02:11:00;;;;;;;13.25;3.30;;;8.80;94.20;;;;;;5078073;28;20333;-79
2023/03/22 02:13:41;;;;;;;12.50;3.28;;;8.70;94.30;;;;;;5093695;28;20089;-80
2023/03/22 02:16:27;;;;;;;10.05;2.95;;;8.80;94.20;;;;;;5078448;28;20048;-79
2023/03/22 02:19:15;;;;;;;15.15;2.85;;;8.80;94.10;;;;;;5037157;28;20523;-79
2023/03/22 02:22:22;;;;;;;12.38;2.65;;;8.80;94.10;;;;;;5077553;28;20052;-79
2023/03/22 02:25:22;;;;;;;12.55;2.92;;;8.80;94.10;;;;;;5046133;28;20136;-81
2023/03/22 02:28:02;;;;;;;13.63;2.80;;;8.90;94.10;;;;;;5066915;28;20491;-79
2023/03/22 02:31:00;;;;;;;15.40;3.00;;;8.80;94.20;;;;;;5093702;28;20040;-79
2023/03/22 02:34:05;;;;;;;11.70;2.97;;;8.90;94.20;;;;;;5077828;28;20156;-80
2023/03/22 02:36:54;;;;;;;9.38;2.88;;;8.90;94.10;;;;;;5053388;28;20048;-80
2023/03/22 02:39:31;;;;;;;12.13;2.83;;;8.90;94.10;;;;;;5083789;28;20060;-79
2023/03/22 02:42:22;;;;;;;9.38;2.40;;;8.90;94.00;;;;;;5094407;28;20169;-79
2023/03/22 02:44:54;;;;;;;11.63;3.15;;;9.00;94.10;;;;;;5094256;28;20527;-80
2023/03/22 02:47:54;;;;;;;9.45;2.90;;;8.90;94.10;;;;;;5093125;28;20036;-80
2023/03/22 02:50:36;;;;;;;11.32;3.00;;;8.90;94.20;;;;;;5077223;28;20097;-79
2023/03/22 02:53:28;;;;;;;9.50;3.58;;;9.00;94.20;;;;;;5094168;28;20040;-80
2023/03/22 02:56:04;;;;;;;9.20;3.03;;;9.00;94.30;;;;;;5077192;28;20044;-79
2023/03/22 02:58:53;;;;;;;22.27;4.22;;;9.00;94.20;;;;;;5076772;28;20059;-80
2023/03/22 03:01:21;;;;;;;10.75;2.92;;;9.00;94.20;;;;;;5094013;28;20043;-79
2023/03/22 03:03:50;;;;;;;12.82;3.22;;;9.00;94.20;;;;;;5093144;28;20055;-80
2023/03/22 03:06:19;;;;;;;12.65;2.83;;;9.00;94.20;;;;;;5093885;28;20495;-81
2023/03/22 03:08:49;;;;;;;17.83;3.10;;;9.10;94.00;;;;;;5094255;28;20127;-80
2023/03/22 03:11:16;;;;;;;12.35;2.42;;;9.10;94.00;;;;;;5094110;28;20088;-79
2023/03/22 03:13:46;;;;;;;9.90;3.00;;;9.10;93.90;;;;;;5076869;28;20032;-80
2023/03/22 03:16:16;;;;;;;11.40;2.53;;;9.10;93.80;;;;;;5076849;28;20039;-80
2023/03/22 03:19:23;;;;;;;14.98;3.00;;;9.10;94.00;;;;;;5092859;28;20047;-80
2023/03/22 03:22:03;;;;;;;9.40;2.65;;;9.10;93.60;;;;;;5072404;28;20105;-80
2023/03/22 03:24:43;;;;;;;11.55;2.65;;;9.10;93.50;;;;;;5093912;28;20501;-80
2023/03/22 03:27:31;;;;;;;12.90;2.72;;;9.20;93.60;;;;;;5093516;28;20041;-79
2023/03/22 03:30:10;;;;;;;13.07;3.13;;;9.20;93.60;;;;;;5076989;28;20439;-79
2023/03/22 03:32:51;;;;;;;14.40;3.42;;;9.20;93.50;;;;;;5076602;28;20499;-79
2023/03/22 03:35:26;;;;;;;11.25;3.08;;;9.20;93.30;;;;;;5075331;28;20577;-79
2023/03/22 03:38:04;;;;;;;10.50;2.58;;;9.20;93.30;;;;;;5076372;28;20067;-79
2023/03/22 03:40:33;;;;;;;13.20;2.92;;;9.30;93.30;;;;;;5093225;28;20046;-80
2023/03/22 03:43:03;;;;;;;12.55;2.78;;;9.30;93.50;;;;;;5093142;28;20044;-80
2023/03/22 03:45:29;;;;;;;11.73;2.47;;;9.30;92.90;;;;;;5092991;28;20093;-79
2023/03/22 03:47:59;;;;;;;10.65;2.47;;;9.30;93.00;;;;;;5076745;28;20144;-79
2023/03/22 03:50:25;;;;;;;16.75;3.35;;;9.30;92.90;;;;;;5092983;28;20555;-80
2023/03/22 03:52:53;;;;;;;9.70;2.42;;;9.40;92.90;;;;;;5075408;28;20092;-80
2023/03/22 03:55:20;;;;;;;11.07;3.00;;;9.40;92.70;;;;;;5076437;28;20143;-80
2023/03/22 03:57:46;;;;;;;9.48;2.80;;;9.50;92.60;;;;;;5076286;28;20043;-80
2023/03/22 04:00:15;;;;;;;12.57;3.58;;;9.40;92.60;;;;;;5059226;28;20510;-80
2023/03/22 04:02:42;;;;;;;14.60;2.33;;;9.50;92.70;;;;;;5092818;28;20036;-80
2023/03/22 04:05:09;;;;;;;8.20;2.55;;;9.50;92.70;;;;;;5092789;28;20047;-80
2023/03/22 04:07:35;;;;;;;12.32;3.53;;;9.50;92.70;;;;;;5092671;28;20040;-81
2023/03/22 04:10:02;;;;;;;10.88;2.65;;;9.50;92.70;;;;;;5090879;28;20032;-80
2023/03/22 04:12:28;;;;;;;10.13;2.45;;;9.50;92.80;;;;;;5092563;28;20051;-80
2023/03/22 04:14:54;;;;;;;12.82;3.13;;;9.50;92.70;;;;;;5075996;28;20455;-81
2023/03/22 04:17:21;;;;;;;9.95;2.60;;;9.50;92.60;;;;;;5075935;28;20051;-79
2023/03/22 04:19:46;;;;;;;12.00;2.45;;;9.50;92.60;;;;;;5092504;28;20123;-81
2023/03/22 04:22:13;;;;;;;13.70;2.88;;;9.50;92.50;;;;;;5092689;28;20134;-80
2023/03/22 04:24:42;;;;;;;13.38;3.10;;;9.40;92.60;;;;;;5075675;28;20504;-81
2023/03/22 04:27:08;;;;;;;13.00;2.95;;;9.40;92.40;;;;;;5057715;28;20037;-82
2023/03/22 04:29:35;;;;;;;14.27;3.85;;;9.40;92.50;;;;;;5074712;28;20389;-82
2023/03/22 04:32:02;;;;;;;12.88;3.30;;;9.40;92.30;;;;;;5074952;28;20040;-81
2023/03/22 04:34:28;;;;;;;15.80;4.03;;;9.40;92.30;;;;;;5056487;28;20072;-80
2023/03/22 04:36:53;;;;;;;12.32;4.25;;;9.40;92.30;;;;;;5072215;28;20091;-81
2023/03/22 04:39:20;;;;;;;14.20;4.15;;;9.40;92.60;;;;;;5072045;28;20919;-80
2023/03/22 04:41:45;;;;;;;15.73;3.97;;;9.30;92.50;;;;;;5058302;28;20488;-80
2023/03/22 04:44:11;;;;;;;12.30;4.05;;;9.40;92.60;;;;;;5092333;28;20080;-80
2023/03/22 04:46:37;;;;;;;11.45;3.97;;;9.30;92.50;;;;;;5075192;28;20127;-81
2023/03/22 04:49:04;;;;;;;12.00;4.55;;;9.30;92.60;;;;;;5075339;28;20036;-80
2023/03/22 04:51:30;;;;;;;11.35;4.93;;;9.30;92.60;;;;;;5074991;28;20047;-80
2023/03/22 04:53:57;;;;;;;11.30;5.10;;;9.30;92.60;;;;;;5091815;28;20514;-80
2023/03/22 04:56:23;;;;;;;9.05;4.72;;;9.40;92.60;;;;;;5074919;28;20040;-80
2023/03/22 04:58:49;;;;;;;13.30;5.82;;;9.40;92.60;;;;;;5091732;28;20050;-80
2023/03/22 05:01:16;;;;;;;13.32;5.72;;;9.40;92.60;;;;;;5056350;28;20040;-80
2023/03/22 05:03:44;;;;;;;15.52;6.03;;;9.40;92.70;;;;;;5071605;28;20052;-81
2023/03/22 05:06:10;;;;;;;12.88;6.93;;;9.40;92.70;;;;;;5071623;28;20048;-80
2023/03/22 05:08:36;;;;;;;12.43;5.85;;;9.50;92.70;;;;;;5054671;28;20128;-80
2023/03/22 05:11:12;;;;;;;15.68;6.38;;;9.40;92.70;;;;;;5038277;28;20491;-81
2023/03/22 05:13:39;;;;;;;14.80;6.70;;;9.50;92.70;;;;;;5054707;28;20032;-81
2023/03/22 05:16:05;;;;;;;13.63;6.78;;;9.50;92.80;;;;;;5071396;28;20050;-81
2023/03/22 05:18:31;;;;;;;12.75;7.13;;;9.50;92.70;;;;;;5090417;28;20460;-81
2023/03/22 05:20:59;;;;;;;15.38;8.07;;;9.60;92.80;;;;;;5074530;28;20051;-82
2023/03/22 05:23:26;;;;;;;16.17;7.43;;;9.60;92.80;;;;;;5091271;28;20134;-81
2023/03/22 05:25:53;;;;;;;17.35;8.07;;;9.70;92.80;;;;;;5091681;28;20118;-81
2023/03/22 05:28:20;;;;;;;17.27;8.32;;;9.60;92.80;;;;;;5091260;28;20058;-82
2023/03/22 05:30:48;;;;;;;14.93;8.52;;;9.70;92.80;;;;;;5074875;28;20040;-81
2023/03/22 05:33:15;;;;;;;17.13;8.52;;;9.70;92.70;;;;;;5090597;28;20024;-82
2023/03/22 05:35:42;;;;;;;18.55;9.10;;;9.80;92.70;;;;;;5058188;28;20036;-80
2023/03/22 05:38:09;;;;;;;13.70;8.15;;;9.80;92.60;;;;;;5080478;28;20071;-80
2023/03/22 05:40:35;;;;;;;17.60;8.80;;;9.70;92.70;;;;;;5079634;28;20094;-80
2023/03/22 05:43:00;;;;;;;14.68;9.55;;;9.70;92.70;;;;;;5062161;28;20040;-81
2023/03/22 05:45:26;;;;;;;15.98;8.95;;;9.70;92.80;;;;;;5084669;28;20502;-80
2023/03/22 05:47:52;;;;;;;17.80;10.35;;;9.70;92.90;;;;;;5073800;28;20032;-80
2023/03/22 05:50:21;;;;;;;15.82;8.75;;;9.70;92.70;;;;;;5073953;28;20038;-80
2023/03/22 05:52:47;;;;;;;19.90;9.88;;;9.70;92.80;;;;;;5090637;28;20047;-79
2023/03/22 05:55:18;;;;;;;15.50;8.80;;;9.70;92.90;;;;;;5073865;28;20365;-79
2023/03/22 05:57:50;;;;;;;17.88;8.95;;;9.70;93.00;;;;;;5090701;28;20040;-80
2023/03/22 06:00:17;;;;;;;16.35;8.18;;;9.70;92.80;;;;;;5073919;28;20042;-80
2023/03/22 06:02:45;;;;;;;19.27;10.23;;;9.80;92.70;;;;;;5059883;28;20044;-80
2023/03/22 06:05:13;;;;;;;16.42;10.32;;;9.70;93.00;;;;;;5060626;28;20043;-80
2023/03/22 06:07:40;;;;;;;18.13;10.50;;;9.70;93.00;;;;;;5080878;28;20397;-80
2023/03/22 06:10:09;;;;;;;17.40;9.48;;;9.70;93.00;;;;;;5081082;28;20036;-80
2023/03/22 06:12:35;;;;;;;18.13;10.02;;;9.70;92.90;;;;;;5079182;28;20507;-80
2023/03/22 06:15:01;;;;;;;23.98;10.77;;;9.70;93.10;;;;;;5077608;28;20036;-80
2023/03/22 06:17:27;;;;;;;15.82;9.40;;;9.70;93.40;;;;;;5046106;28;20115;-80
2023/03/22 06:19:53;;;;;;;17.85;10.27;;;9.80;93.20;;;;;;5064774;28;20036;-79
2023/03/22 06:22:20;;;;;;;18.85;10.45;;;9.80;93.20;;;;;;5040453;28;20135;-80
2023/03/22 06:24:46;;;;;;;18.92;9.18;;;9.80;93.30;;;;;;5071077;28;20469;-80
2023/03/22 06:27:12;;;;;;;17.05;10.40;;;9.80;93.30;;;;;;5058675;28;20652;-80
2023/03/22 06:29:38;;;;;;;18.27;9.55;;;9.90;93.20;;;;;;5073304;28;20079;-79
2023/03/22 06:32:04;;;;;;;15.75;10.23;;;9.90;93.20;;;;;;5072115;28;20042;-79
2023/03/22 06:34:29;;;;;;;16.13;9.65;;;10.00;93.10;;;;;;5075811;28;20127;-78
2023/03/22 06:36:55;;;;;;;16.58;8.88;;;10.00;92.70;;;;;;5094701;28;20070;-79
2023/03/22 06:39:21;;;;;;;16.50;9.50;;;10.10;93.00;;;;;;5077478;28;20040;-78
2023/03/22 06:41:47;;;;;;;16.15;9.70;;;10.10;92.70;;;;;;5094777;28;20040;-79
2023/03/22 06:44:14;;;;;;;13.43;8.35;;;10.10;92.40;;;;;;5094385;28;20456;-78
2023/03/22 06:46:40;;;;;;;19.45;10.43;;;10.10;92.50;;;;;;5077317;28;20483;-78
2023/03/22 06:49:06;;;;;;;20.77;9.05;;;10.20;92.10;;;;;;5077680;28;20093;-78
2023/03/22 06:51:33;;;;;;;15.32;10.00;;;10.20;92.20;;;;;;5094537;28;20047;-79
2023/03/22 06:53:59;;;;;;;17.17;8.75;;;10.20;92.20;;;;;;5094507;28;20036;-79
2023/03/22 06:56:25;;;;;;;21.02;10.68;;;10.30;92.00;;;;;;5060648;28;20479;-78
2023/03/22 06:58:53;;;;;;;16.05;7.43;;;10.20;92.00;;;;;;5094048;28;20076;-78
2023/03/22 07:01:19;;;;;;;19.17;8.73;;;10.30;91.80;;;;;;5093991;28;20055;-79
2023/03/22 07:03:45;;;;;;;15.52;8.85;;;10.20;91.80;;;;;;5094021;28;20046;-79
2023/03/22 07:06:11;;;;;;;20.23;9.77;;;10.20;91.90;;;;;;5077258;28;20044;-80
2023/03/22 07:08:37;;;;;;;17.55;8.95;;;10.20;91.90;;;;;;5094783;28;20035;-79
2023/03/22 07:11:04;;;;;;;16.48;8.45;;;10.20;91.60;;;;;;5077673;28;20548;-77
2023/03/22 07:13:29;;;;;;;16.60;9.00;;;10.20;91.90;;;;;;5094279;28;20047;-78
2023/03/22 07:15:56;;;;;;;18.55;9.35;;;10.20;91.80;;;;;;5094254;28;20127;-79
2023/03/22 07:18:22;;;;;;;13.93;8.38;;;10.20;91.80;;;;;;5094286;28;20055;-79
2023/03/22 07:20:48;;;;;;;14.45;7.30;;;10.20;91.90;;;;;;5077472;28;20040;-79
2023/03/22 07:23:15;;;;;;;14.60;8.10;;;10.20;91.70;;;;;;5094202;28;20151;-79
2023/03/22 07:25:41;;;;;;;16.23;8.00;;;10.20;91.70;;;;;;5094039;28;20044;-80
2023/03/22 07:28:09;;;;;;;14.65;7.13;;;10.20;91.70;;;;;;5094014;28;20047;-79
2023/03/22 07:30:36;;;;;;;15.00;7.85;;;10.20;91.60;;;;;;5093661;28;20039;-79
2023/03/22 07:33:02;;;;;;;14.63;7.55;;;10.20;91.60;;;;;;5059392;28;20047;-78
2023/03/22 07:35:29;;;;;;;15.75;7.70;;;10.20;91.50;;;;;;5091727;28;20067;-79
2023/03/22 07:37:54;;;;;;;11.85;5.50;;;10.20;91.30;;;;;;5075029;28;20039;-79
2023/03/22 07:40:20;;;;;;;16.20;7.15;;;10.30;91.50;;;;;;5074768;28;20032;-79
2023/03/22 07:42:50;;;;;;;14.50;6.70;;;10.20;91.00;;;;;;5074816;28;20042;-79
2023/03/22 07:45:18;;;;;;;17.48;7.90;;;10.30;91.10;;;;;;5091426;28;20040;-79
2023/03/22 07:47:44;;;;;;;18.58;7.50;;;10.20;90.70;;;;;;5093108;28;20097;-80
2023/03/22 07:50:12;;;;;;;17.02;6.43;;;10.20;90.80;;;;;;5093390;28;20051;-80
2023/03/22 07:52:39;;;;;;;15.90;6.65;;;10.30;90.60;;;;;;5093417;28;20533;-80
2023/03/22 07:55:06;;;;;;;19.48;7.72;;;10.20;90.70;;;;;;5093301;28;20040;-80
2023/03/22 07:57:32;;;;;;;10.55;5.45;;;10.20;91.00;;;;;;5093208;28;20124;-81
2023/03/22 07:59:58;;;;;;;12.73;7.03;;;10.30;90.30;;;;;;5076052;28;20491;-80
2023/03/22 08:02:23;;;;;;;13.63;6.25;;;10.30;90.40;;;;;;5075951;28;20075;-80
2023/03/22 08:04:51;;;;;;;16.38;6.43;;;10.30;90.60;;;;;;5092663;28;20040;-80
2023/03/22 08:07:19;;;;;;;13.98;5.13;;;10.30;90.40;;;;;;5092768;28;20097;-81
2023/03/22 08:09:46;;;;;;;10.48;5.40;;;10.40;90.30;;;;;;5076413;28;20040;-81
2023/03/22 08:12:12;;;;;;;11.52;5.00;;;10.40;90.00;;;;;;5092951;28;20059;-81
2023/03/22 08:14:38;;;;;;;16.13;6.35;;;10.40;90.10;;;;;;5092768;28;20040;-80
2023/03/22 08:17:04;;;;;;;13.20;5.43;;;10.50;89.70;;;;;;5092620;28;20437;-82
2023/03/22 08:19:31;;;;;;;12.70;5.30;;;10.40;89.70;;;;;;5075707;28;20122;-80
2023/03/22 08:21:58;;;;;;;9.10;4.75;;;10.50;89.70;;;;;;5075434;28;20067;-81
2023/03/22 08:24:25;;;;;;;13.18;5.32;;;10.50;89.70;;;;;;5092741;28;20048;-80
2023/03/22 08:26:51;;;;;;;12.55;5.55;;;10.50;89.90;;;;;;5092550;28;20400;-81
2023/03/22 08:29:17;;;;;;;13.10;5.95;;;10.50;90.10;;;;;;5092348;28;20039;-81
2023/03/22 08:31:43;;;;;;;12.88;5.40;;;10.50;90.30;;;;;;5059130;28;20028;-80
2023/03/22 08:34:09;;;;;;;14.57;6.03;;;10.50;90.20;;;;;;5075618;28;20434;-80
2023/03/22 08:36:36;;;;;;;15.07;5.22;;;10.50;90.40;;;;;;5092605;28;20040;-80
2023/03/22 08:39:03;;;;;;;13.40;5.55;;;10.50;90.40;;;;;;5075274;28;20052;-82
2023/03/22 08:41:29;;;;;;;13.15;5.38;;;10.50;90.70;;;;;;5092887;28;20399;-82
2023/03/22 08:43:55;;;;;;;11.85;4.45;;;10.50;90.70;;;;;;5092127;28;20085;-81
2023/03/22 08:46:21;;;;;;;11.13;4.32;;;10.40;90.70;;;;;;5075402;28;20040;-79
2023/03/22 08:48:49;;;;;;;12.98;4.53;;;10.40;90.70;;;;;;5092232;28;20039;-78
2023/03/22 08:51:21;;;;;;;13.02;4.93;;;10.30;91.20;;;;;;5092041;28;20042;-79
2023/03/22 08:53:47;;;;;;;15.60;6.07;;;10.30;92.00;;;;;;5091778;28;20032;-79
2023/03/22 08:56:15;;;;;;;12.10;4.47;;;10.30;91.40;;;;;;5092030;28;20044;-78
2023/03/22 08:58:45;;;;;;;12.32;4.20;;;10.20;91.60;;;;;;5092190;28;20036;-78
2023/03/22 09:01:11;;;;;;;13.38;4.60;;;10.20;91.80;;;;;;5075423;28;20055;-78
2023/03/22 09:03:37;;;;;;;13.02;5.38;;;10.10;92.20;;;;;;5092050;28;20108;-78
2023/03/22 09:06:03;;;;;;;14.60;4.50;;;10.10;92.30;;;;;;5091645;28;20103;-77
2023/03/22 09:08:29;;;;;;;18.83;5.93;;;10.10;92.20;;;;;;5074807;28;20047;-78
2023/03/22 09:10:55;;;;;;;11.63;4.63;;;10.10;92.30;;;;;;5092021;28;20035;-81
2023/03/22 09:13:21;;;;;;;9.02;4.97;;;10.10;92.30;;;;;;5092323;28;20484;-80
2023/03/22 09:15:47;;;;;;;14.10;5.05;;;10.10;92.50;;;;;;5091879;28;20436;-78
2023/03/22 09:18:14;;;;;;;12.13;4.80;;;10.00;92.80;;;;;;5075069;28;20036;-78
2023/03/22 09:20:39;;;;;;;10.10;4.72;;;10.10;92.50;;;;;;5091980;28;20051;-76
2023/03/22 09:23:05;;;;;;;12.88;4.65;;;10.10;92.50;;;;;;5091179;28;20143;-76
2023/03/22 09:25:31;;;;;;;11.40;4.20;;;10.10;92.70;;;;;;5074672;28;20125;-77
2023/03/22 09:27:57;;;;;;;13.73;4.80;;;10.00;93.20;;;;;;5074905;28;20126;-77
2023/03/22 09:30:23;;;;;;;10.38;4.53;;;10.00;92.90;;;;;;5074664;28;20040;-78
2023/03/22 09:32:48;;;;;;;15.32;4.93;;;10.00;93.20;;;;;;5091528;28;20048;-76
2023/03/22 09:35:15;;;;;;;9.68;3.65;;;10.00;93.20;;;;;;5074576;28;20048;-79
2023/03/22 09:37:41;;;;;;;11.90;5.03;;;9.90;93.40;;;;;;5074639;28;20148;-77
2023/03/22 09:40:07;;;;;;;10.15;5.22;;;9.90;93.80;;;;;;5074630;28;20135;-78
2023/03/22 09:42:54;;;;;;;13.40;5.68;;;9.80;93.60;;;;;;5074590;28;20097;-77
2023/03/22 09:45:31;;;;;;;9.68;5.00;;;9.70;94.20;;;;;;5091732;28;20044;-77
2023/03/22 09:47:58;;;;;;;14.27;5.03;;;9.70;94.70;;;;;;5091492;28;20040;-78
2023/03/22 09:50:28;;;;;;;12.13;5.20;;;9.70;94.90;;;;;;5091359;28;20036;-77
2023/03/22 09:52:55;;;;;;;16.10;5.40;;;9.60;95.10;;;;;;5074549;28;20067;-77
2023/03/22 09:55:38;;;;;;;14.50;5.00;;;9.60;95.30;;;;;;5074455;28;20555;-77
2023/03/22 09:58:16;;;;;;;13.15;4.80;;;9.60;95.00;;;;;;5091430;28;20102;-77
2023/03/22 10:00:54;;;;;;;15.50;5.15;;;9.60;95.10;;;;;;5091199;28;20051;-77
2023/03/22 10:03:41;;;;;;;13.05;6.22;;;9.60;95.20;;;;;;5091187;28;20044;-77
2023/03/22 10:06:17;;;;;;;14.25;4.80;;;9.60;95.50;;;;;;5091296;28;20051;-78
2023/03/22 10:09:03;;;;;;;7.35;3.95;;;9.60;95.40;;;;;;5077018;28;20043;-78
2023/03/22 10:12:25;;;;;;;10.20;4.68;;;9.60;95.60;;;;;;5095147;28;20043;-79
2023/03/22 10:15:03;;;;;;;12.02;4.68;;;9.50;95.80;;;;;;4997299;28;20503;-78
2023/03/22 10:17:29;;;;;;;15.43;5.28;;;9.50;96.00;;;;;;5078172;28;20065;-78
2023/03/22 10:20:07;;;;;;;10.85;5.15;;;9.50;96.00;;;;;;5095190;28;20048;-79
2023/03/22 10:22:37;;;;;;;16.27;4.63;;;9.50;95.90;;;;;;5095031;28;20109;-78
2023/03/22 10:25:05;;;;;;;16.23;5.32;;;9.50;96.10;;;;;;5095035;28;20071;-79
2023/03/22 10:27:33;;;;;;;17.23;6.20;;;9.50;95.90;;;;;;5077721;28;20044;-78
2023/03/22 10:30:08;;;;;;;9.30;4.70;;;9.50;96.10;;;;;;5077869;28;20052;-79
2023/03/22 10:33:00;;;;;;;10.82;4.88;;;9.50;95.90;;;;;;5095084;28;20035;-79
2023/03/22 10:35:26;;;;;;;12.50;4.40;;;9.60;95.70;;;;;;5094988;28;20036;-79
2023/03/22 10:37:55;;;;;;;9.35;4.72;;;9.60;95.70;;;;;;5077665;28;20214;-81
2023/03/22 10:40:29;;;;;;;14.68;5.63;;;9.60;95.80;;;;;;5077746;28;20036;-78
2023/03/22 10:43:20;;;;;;;12.20;4.43;;;9.70;95.80;;;;;;5094635;28;20119;-79
2023/03/22 10:45:46;;;;;;;13.50;5.00;;;9.70;95.70;;;;;;5077767;28;20036;-78
2023/03/22 10:48:27;;;;;;;12.38;5.18;;;9.70;95.90;;;;;;5077504;28;20040;-78
2023/03/22 10:50:54;;;;;;;11.05;4.90;;;9.70;95.90;;;;;;5094490;28;20036;-78
2023/03/22 10:53:28;;;;;;;14.55;5.47;;;9.70;96.00;;;;;;5094317;28;20063;-78
2023/03/22 10:55:55;;;;;;;10.98;4.13;;;9.70;96.00;;;;;;5094386;28;20051;-77
2023/03/22 10:58:27;;;;;;;13.43;5.85;;;9.80;95.90;;;;;;5077774;28;20052;-79
2023/03/22 11:01:01;;;;;;;14.38;4.70;;;9.80;96.00;;;;;;5094206;28;20048;-77
2023/03/22 11:03:30;;;;;;;13.70;5.40;;;9.80;95.90;;;;;;5094267;28;20044;-78
2023/03/22 11:06:23;;;;;;;9.48;4.20;;;9.80;95.80;;;;;;5077506;28;20070;-78
2023/03/22 11:09:10;;;;;;;10.50;4.78;;;9.90;95.80;;;;;;5105531;28;20077;-77
2023/03/22 11:11:56;;;;;;;12.07;5.03;;;9.90;95.40;;;;;;5099563;28;20036;-78
2023/03/22 11:14:32;;;;;;;11.02;4.75;;;9.90;95.70;;;;;;5098967;28;20043;-77
2023/03/22 11:17:05;;;;;;;12.73;4.90;;;9.80;95.70;;;;;;5101104;28;20036;-78
2023/03/22 11:19:34;;;;;;;11.93;4.82;;;9.80;95.70;;;;;;5099487;28;20082;-78
2023/03/22 11:22:03;;;;;;;14.90;4.97;;;9.80;95.80;;;;;;5099141;28;20048;-78
2023/03/22 11:24:31;;;;;;;11.43;5.18;;;9.90;95.70;;;;;;5099116;28;20056;-78
2023/03/22 11:27:03;;;;;;;11.38;5.40;;;9.90;95.70;;;;;;5093824;28;20124;-78
2023/03/22 11:29:42;;;;;;;10.68;4.63;;;9.90;95.80;;;;;;5076767;28;20146;-76
2023/03/22 11:32:25;;;;;;;9.25;5.00;;;10.00;95.60;;;;;;5093904;28;20040;-78
2023/03/22 11:34:59;;;;;;;11.07;4.53;;;10.10;95.50;;;;;;5076622;28;20127;-77
2023/03/22 11:37:25;;;;;;;10.30;5.18;;;10.10;95.40;;;;;;5076800;28;20487;-77
2023/03/22 11:39:57;;;;;;;9.73;5.30;;;10.10;95.40;;;;;;5076543;28;20042;-77
2023/03/22 11:42:23;;;;;;;9.57;4.85;;;10.10;95.40;;;;;;5093742;28;20130;-77
2023/03/22 11:44:49;;;;;;;13.20;5.40;;;10.10;95.40;;;;;;5093552;28;20467;-77
2023/03/22 11:47:15;;;;;;;12.68;5.30;;;10.10;95.20;;;;;;5076451;28;20536;-77
2023/03/22 11:49:53;;;;;;;11.50;5.20;;;10.10;95.20;;;;;;5076505;28;20036;-77
2023/03/22 11:52:23;;;;;;;8.77;4.53;;;10.10;95.30;;;;;;5059893;28;20036;-78
2023/03/22 11:54:50;;;;;;;12.57;5.38;;;10.10;95.20;;;;;;5093362;28;20079;-77
2023/03/22 11:57:22;;;;;;;9.57;4.85;;;10.00;95.10;;;;;;5076410;28;20075;-78
2023/03/22 11:59:52;;;;;;;10.82;5.47;;;10.10;95.00;;;;;;5076192;28;20040;-78
2023/03/22 12:02:31;;;;;;;10.35;4.63;;;10.10;94.90;;;;;;5093395;28;20040;-78
2023/03/22 12:05:16;;;;;;;8.85;4.90;;;10.10;94.80;;;;;;5092965;28;20063;-77
2023/03/22 12:07:42;;;;;;;11.73;5.93;;;10.10;94.70;;;;;;5092862;28;20059;-78
2023/03/22 12:10:19;;;;;;;8.50;5.07;;;10.20;94.70;;;;;;5092970;28;20480;-77
2023/03/22 12:12:53;;;;;;;12.55;6.00;;;10.20;94.80;;;;;;5076321;28;20028;-77
2023/03/22 12:15:21;;;;;;;;;;;10.20;94.80;;;;;;5093674;28;20036;-78
2023/03/22 12:17:51;;;;;;;11.55;5.40;;;10.20;94.90;;;;;;5092853;28;19916;-78
2023/03/22 12:20:34;;;;;;;10.82;5.45;;;10.10;95.10;;;;;;5092930;28;20044;-78
2023/03/22 12:23:01;;;;;;;10.63;5.90;;;10.20;95.10;;;;;;5092311;28;20052;-77
2023/03/22 12:25:32;;;;;;;12.65;6.35;;;10.20;94.90;;;;;;5092671;28;20056;-77
2023/03/22 12:28:06;;;;;;;16.20;8.23;;;10.10;95.30;;;;;;5092869;28;20051;-78
2023/03/22 12:30:51;;;;;;;13.70;6.22;;;10.10;95.40;;;;;;5075275;28;20047;-78
2023/03/22 12:33:30;;;;;;;15.63;6.97;;;10.10;95.50;;;;;;5092424;28;20069;-77
2023/03/22 12:36:02;;;;;;;11.52;6.78;;;10.10;95.40;;;;;;5092553;28;20120;-78
2023/03/22 12:38:45;;;;;;;12.52;6.65;;;10.00;95.50;;;;;;5092685;28;20036;-78
2023/03/22 12:41:16;;;;;;;11.73;7.38;;;10.10;95.70;;;;;;5092377;28;20043;-77
2023/03/22 12:43:48;;;;;;;13.45;7.45;;;10.00;96.30;;;;;;5092297;28;20043;-78
2023/03/22 12:46:25;;;;;;;14.13;7.28;;;10.00;96.10;;;;;;5092338;28;20101;-78
2023/03/22 12:48:59;;;;;;;12.45;8.07;;;10.00;96.20;;;;;;5075436;28;20384;-78
2023/03/22 12:51:25;;;;;;;12.82;7.35;;;10.00;96.60;;;;;;5092451;28;20075;-78
2023/03/22 12:53:55;;;;;;;15.60;7.72;;;10.00;96.90;;;;;;5092179;28;20081;-79
2023/03/22 12:56:37;;;;;;;13.18;8.57;;;10.00;96.90;;;;;;5092024;28;20051;-77
2023/03/22 12:59:06;;;;;;;14.35;8.15;;;10.00;96.90;;;;;;5092226;28;20044;-78
2023/03/22 13:01:38;;;;;;;20.05;8.90;;;10.00;97.10;;;;;;5091960;28;20040;-78